Time;durP1;ratioP1;P1;durP2;ratioP2;P2;SDS_P1;SDS_P2;PMS_P1;PMS_P2;Temp;Humidity;BMP_temperature;BMP_pressure;BME280_temperature;BME280_humidity;BME280_pressure;Samples;Min_cycle;Max_cycle;Signal;HPM_P1;HPM_P2
2023/10/20 05:09:24;;;;;;;9.10;3.20;;;;;;;14.50;100.00;99057.80;88127;1302;22798;-55
2023/10/20 05:11:53;;;;;;;10.40;3.20;;;;;;;14.52;100.00;99055.23;107277;1299;22315;-50
2023/10/20 05:14:21;;;;;;;7.20;2.80;;;;;;;14.54;100.00;99054.98;107702;1303;22411;-49
2023/10/20 05:16:49;;;;;;;7.90;2.90;;;;;;;14.58;100.00;99057.66;106999;1285;23237;-49
2023/10/20 05:19:17;;;;;;;7.20;2.70;;;;;;;14.61;100.00;99058.08;107074;1298;22596;-49
2023/10/20 05:21:45;;;;;;;5.10;2.10;;;;;;;14.63;100.00;99063.97;107325;1302;23472;-57
2023/10/20 05:24:13;;;;;;;5.10;2.30;;;;;;;14.68;100.00;99058.52;107576;1296;22805;-57
2023/10/20 05:26:45;;;;;;;7.20;2.50;;;;;;;14.73;100.00;99051.34;107429;1298;22277;-57
2023/10/20 05:29:14;;;;;;;6.70;2.50;;;;;;;14.77;100.00;99043.28;107398;1296;22389;-49
2023/10/20 05:31:43;;;;;;;8.30;2.30;;;;;;;14.81;100.00;99042.06;106465;1294;23150;-49
2023/10/20 05:34:42;;;;;;;10.20;2.80;;;;;;;14.85;100.00;99040.70;106912;1289;22298;-48
2023/10/20 05:37:36;;;;;;;7.20;2.70;;;;;;;14.91;100.00;99048.04;106052;1296;25351;-57
2023/10/20 05:40:22;;;;;;;5.60;2.80;;;;;;;14.93;100.00;99055.14;106759;1296;22486;-58
2023/10/20 05:42:56;;;;;;;8.10;2.40;;;;;;;14.95;100.00;99057.87;106911;1296;23270;-57
2023/10/20 05:45:39;;;;;;;8.70;3.70;;;;;;;14.99;100.00;99043.88;106379;1299;22870;-50
2023/10/20 05:48:15;;;;;;;11.60;3.60;;;;;;;15.01;100.00;99039.58;106606;1298;23141;-48
2023/10/20 05:51:34;;;;;;;8.20;3.00;;;;;;;15.05;100.00;99035.90;106469;1301;22457;-49
2023/10/20 05:54:55;;;;;;;10.50;2.60;;;;;;;15.09;100.00;99035.07;106922;1296;23527;-48
2023/10/20 05:58:19;;;;;;;10.20;2.60;;;;;;;15.11;100.00;99031.45;105626;1302;22389;-57
2023/10/20 06:00:54;;;;;;;7.90;3.00;;;;;;;15.15;100.00;99035.67;106988;1287;23778;-58
2023/10/20 06:03:52;;;;;;;7.30;3.10;;;;;;;15.18;100.00;99025.71;106908;1298;23420;-49
2023/10/20 06:06:39;;;;;;;7.60;3.60;;;;;;;15.22;100.00;99023.86;105629;1300;23036;-49
2023/10/20 06:09:29;;;;;;;16.20;3.50;;;;;;;15.24;100.00;99024.97;106149;1298;23111;-57
2023/10/20 06:12:21;;;;;;;7.50;3.30;;;;;;;15.26;100.00;99023.52;106140;1298;23125;-48
2023/10/20 06:14:52;;;;;;;6.10;2.80;;;;;;;15.28;100.00;99027.09;107224;1280;22626;-55
2023/10/20 06:17:23;;;;;;;8.20;3.00;;;;;;;15.30;100.00;99029.66;106632;1297;22569;-49
2023/10/20 06:20:06;;;;;;;7.00;3.00;;;;;;;15.31;100.00;99018.05;106172;1296;22616;-58
2023/10/20 06:24:33;;;;;;;10.60;2.90;;;;;;;15.32;100.00;99009.73;106884;1298;22349;-48
2023/10/20 06:27:05;;;;;;;7.90;3.20;;;;;;;15.34;100.00;99007.75;106622;1295;23091;-49
2023/10/20 06:29:58;;;;;;;;;;;;;;;15.35;100.00;99002.77;106457;1287;22693;-50
2023/10/20 06:32:41;;;;;;;10.60;3.80;;;;;;;15.37;100.00;98994.27;107641;1302;23063;-58
2023/10/20 06:35:12;;;;;;;8.90;3.70;;;;;;;15.38;100.00;98985.42;106604;1296;23076;-52
2023/10/20 06:37:47;;;;;;;9.20;3.40;;;;;;;15.41;100.00;98979.34;107156;1295;22400;-58
2023/10/20 06:40:17;;;;;;;12.10;3.40;;;;;;;15.44;100.00;98974.48;106963;1299;22322;-59
2023/10/20 06:42:47;;;;;;;9.20;3.70;;;;;;;15.48;100.00;98977.13;107365;1301;22900;-58
2023/10/20 06:45:17;;;;;;;9.10;3.10;;;;;;;15.52;100.00;98974.70;107447;1295;22423;-58
2023/10/20 06:47:47;;;;;;;8.80;3.20;;;;;;;15.55;100.00;98978.59;107753;1294;22819;-50
2023/10/20 06:52:05;;;;;;;10.20;3.90;;;;;;;15.64;100.00;98971.74;106164;1302;545024;-50
2023/10/20 06:54:35;;;;;;;10.30;3.90;;;;;;;15.66;100.00;98975.71;107997;1290;22312;-51
2023/10/20 06:57:03;;;;;;;11.40;5.10;;;;;;;15.70;100.00;98984.16;108669;1286;23156;-50
2023/10/20 06:59:31;;;;;;;12.10;5.00;;;;;;;15.74;100.00;98990.17;108588;1274;22554;-61
2023/10/20 07:02:06;;;;;;;9.40;3.60;;;;;;;15.79;100.00;98994.36;108151;1288;22592;-58
2023/10/20 07:04:57;;;;;;;7.80;2.80;;;;;;;15.85;100.00;98990.91;102318;1283;6837568;-59
2023/10/20 07:07:35;;;;;;;7.60;3.00;;;;;;;15.92;100.00;98990.44;109076;1275;22428;-49
2023/10/20 07:10:08;;;;;;;6.40;3.20;;;;;;;15.99;100.00;98983.65;109326;1274;22582;-48
2023/10/20 07:12:49;;;;;;;10.40;3.80;;;;;;;16.04;100.00;98975.52;108457;1277;22528;-57
2023/10/20 07:15:58;;;;;;;9.00;2.80;;;;;;;16.08;100.00;98972.89;108341;1273;24314;-47
2023/10/20 07:19:10;;;;;;;12.30;3.20;;;;;;;16.13;100.00;98959.30;108588;1277;22533;-57
2023/10/20 07:22:10;;;;;;;7.80;3.30;;;;;;;16.18;100.00;98953.27;106951;1271;22574;-49
2023/10/20 07:28:46;;;;;;;9.40;3.20;;;;;;;16.34;100.00;98952.58;108049;1272;22590;-56
2023/10/20 07:31:21;;;;;;;8.50;3.70;;;;;;;16.41;100.00;98957.70;108894;1273;22583;-48
2023/10/20 07:33:50;;;;;;;11.20;3.30;;;;;;;16.50;100.00;98953.95;108503;1273;22569;-50
2023/10/20 07:36:51;;;;;;;7.70;3.20;;;;;;;16.59;100.00;98955.45;108495;1276;22554;-57
2023/10/20 07:40:26;;;;;;;9.40;3.40;;;;;;;16.69;100.00;98955.00;107756;1277;22570;-57
2023/10/20 07:43:46;;;;;;;8.20;3.30;;;;;;;16.91;100.00;98950.52;107473;1268;24611;-56
2023/10/20 07:47:00;;;;;;;10.60;3.70;;;;;;;17.13;100.00;98937.32;108455;1275;22230;-47
2023/10/20 07:49:57;;;;;;;13.00;3.90;;;;;;;17.23;98.28;98952.98;107560;1270;22530;-57
2023/10/20 07:52:34;;;;;;;8.10;3.60;;;;;;;17.23;97.69;98951.09;108224;1276;22569;-55
2023/10/20 07:56:40;;;;;;;9.30;3.30;;;;;;;17.23;97.21;98951.94;108749;1275;23303;-56
2023/10/20 07:59:08;;;;;;;8.30;4.30;;;;;;;17.29;97.28;98957.14;107873;1276;25410;-57
2023/10/20 08:01:36;;;;;;;7.30;3.80;;;;;;;17.35;96.32;98949.62;108450;1270;23496;-51
2023/10/20 08:04:07;;;;;;;15.60;3.80;;;;;;;17.42;95.56;98950.66;108471;1272;22623;-57
2023/10/20 08:06:59;;;;;;;16.30;3.70;;;;;;;17.58;94.34;98958.71;108882;1270;23411;-48
2023/10/20 08:09:27;;;;;;;12.60;3.80;;;;;;;17.71;94.17;98956.65;109413;1271;22531;-57
2023/10/20 08:11:58;;;;;;;6.00;3.30;;;;;;;17.80;92.71;98952.17;109860;1273;22590;-49
2023/10/20 08:14:27;;;;;;;7.50;2.90;;;;;;;17.81;92.90;98949.14;109481;1270;22446;-48
2023/10/20 08:17:14;;;;;;;15.50;4.00;;;;;;;17.82;91.75;98956.45;109592;1270;22460;-56
2023/10/20 08:20:09;;;;;;;10.20;3.20;;;;;;;17.78;91.51;98950.47;109959;1269;23218;-56
2023/10/20 08:23:00;;;;;;;11.60;4.00;;;;;;;17.77;91.66;98939.97;108255;1262;22716;-56
2023/10/20 08:26:33;;;;;;;9.40;3.10;;;;;;;17.80;90.73;98943.53;109099;1276;22581;-54
2023/10/20 08:29:39;;;;;;;12.10;4.20;;;;;;;17.83;90.48;98946.71;108622;1277;25138;-47
2023/10/20 08:32:34;;;;;;;6.60;3.00;;;;;;;17.87;90.06;98951.45;108262;1274;22559;-50
2023/10/20 08:36:24;;;;;;;10.30;3.50;;;;;;;17.98;89.34;98952.83;109139;1261;22299;-56
2023/10/20 08:39:13;;;;;;;7.80;3.10;;;;;;;18.15;89.27;98940.46;107709;1278;22334;-49
2023/10/20 08:41:49;;;;;;;11.00;4.30;;;;;;;18.39;87.93;98948.22;109616;1277;22311;-48
2023/10/20 08:44:21;;;;;;;7.00;3.00;;;;;;;18.60;85.34;98944.12;108464;1270;22242;-56
2023/10/20 08:47:07;;;;;;;7.30;3.30;;;;;;;18.71;85.30;98938.23;107911;1277;22535;-55
2023/10/20 08:49:37;;;;;;;7.00;2.70;;;;;;;18.89;83.88;98939.16;109832;1278;23111;-55
2023/10/20 08:52:08;;;;;;;10.50;3.40;;;;;;;18.97;82.69;98949.52;108387;1278;22421;-48
2023/10/20 08:54:36;;;;;;;15.10;3.90;;;;;;;18.92;82.49;98947.66;109876;1274;22463;-54
2023/10/20 08:57:09;;;;;;;15.90;3.90;;;;;;;18.87;82.82;98954.30;109734;1276;23152;-55
2023/10/20 08:59:37;;;;;;;13.40;3.30;;;;;;;18.86;81.92;98944.08;109781;1263;23208;-49
2023/10/20 09:02:14;;;;;;;7.10;3.00;;;;;;;18.90;81.03;98949.38;109641;1275;22185;-49
2023/10/20 09:08:17;;;;;;;7.60;3.10;;;;;;;18.89;80.24;98943.24;108818;1275;22340;-49
2023/10/20 09:10:59;;;;;;;8.40;4.00;;;;;;;18.86;80.77;98942.33;108693;1277;25136;-54
2023/10/20 09:14:19;;;;;;;5.50;2.90;;;;;;;18.86;80.24;98940.23;107731;1277;24272;-56
2023/10/20 09:17:15;;;;;;;14.20;4.10;;;;;;;18.90;79.64;98949.71;108744;1271;22991;-50
2023/10/20 09:19:55;;;;;;;9.30;3.00;;;;;;;18.95;79.10;98942.20;108699;1272;22545;-47
2023/10/20 09:22:45;;;;;;;6.90;2.90;;;;;;;19.03;78.11;98935.76;107984;1272;22574;-54
2023/10/20 09:25:23;;;;;;;7.60;3.00;;;;;;;19.14;77.49;98927.16;108880;1270;22585;-54
2023/10/20 09:28:19;;;;;;;10.00;3.50;;;;;;;19.26;76.99;98923.31;108999;1277;22152;-57
2023/10/20 09:31:11;;;;;;;7.50;3.00;;;;;;;19.40;77.14;98929.40;109527;1274;22641;-56
2023/10/20 09:34:01;;;;;;;8.20;3.40;;;;;;;19.53;76.16;98922.09;109011;1271;23939;-55
2023/10/20 09:36:38;;;;;;;11.60;3.10;;;;;;;19.69;76.09;98922.96;108771;1278;22651;-54
2023/10/20 09:39:40;;;;;;;9.20;3.30;;;;;;;19.93;74.96;98923.16;108377;1276;22792;-54
2023/10/20 09:42:08;;;;;;;5.00;2.60;;;;;;;20.15;74.05;98919.52;109534;1274;22532;-55
2023/10/20 09:45:06;;;;;;;9.50;3.20;;;;;;;20.27;73.01;98921.08;108144;1272;22574;-48
2023/10/20 09:47:52;;;;;;;6.10;2.60;;;;;;;20.32;72.15;98921.30;107694;1272;22570;-48
2023/10/20 09:50:25;;;;;;;12.40;3.20;;;;;;;20.34;72.36;98920.46;108026;1270;23252;-49
2023/10/20 09:53:02;;;;;;;7.90;3.10;;;;;;;20.41;71.33;98916.98;109006;1274;22628;-55
2023/10/20 09:55:33;;;;;;;8.20;3.10;;;;;;;20.44;70.81;98911.48;108890;1277;22584;-56
2023/10/20 09:58:27;;;;;;;6.20;3.50;;;;;;;20.43;70.97;98905.88;108465;1272;22601;-53
2023/10/20 10:02:16;;;;;;;10.10;2.90;;;;;;;20.34;70.82;98900.25;108815;1275;22570;-54
2023/10/20 10:21:23;;;;;;;;;;;;;;;20.10;72.14;98906.36;108901;1272;22615;-48
2023/10/20 10:28:43;;;;;;;9.70;3.50;;;;;;;20.03;72.41;98910.69;108716;1273;23451;-49
2023/10/20 10:37:26;;;;;;;8.60;3.10;;;;;;;19.97;73.50;98899.35;108199;1272;22567;-53
2023/10/20 10:40:58;;;;;;;8.30;3.40;;;;;;;20.02;72.98;98902.59;108795;1274;22571;-47
2023/10/20 10:44:10;;;;;;;8.10;3.70;;;;;;;20.06;72.63;98897.74;108601;1273;23150;-56
2023/10/20 10:46:59;;;;;;;11.10;3.60;;;;;;;20.08;72.47;98901.00;109211;1276;22669;-48
2023/10/20 10:50:22;;;;;;;8.10;3.20;;;;;;;20.14;72.63;98898.85;108246;1271;22500;-48
2023/10/20 10:54:47;;;;;;;9.90;3.10;;;;;;;20.27;72.22;98894.89;108844;1272;22940;-47
2023/10/20 10:58:18;;;;;;;10.50;3.20;;;;;;;20.35;72.37;98894.39;108575;1270;23189;-49
2023/10/20 11:00:47;;;;;;;7.40;3.20;;;;;;;20.42;71.85;98885.23;108879;1270;22261;-47
2023/10/20 11:03:29;;;;;;;7.10;2.80;;;;;;;20.54;71.13;98879.94;108913;1274;22624;-55
2023/10/20 11:06:07;;;;;;;8.00;3.00;;;;;;;20.59;70.77;98874.66;109094;1277;22444;-47
2023/10/20 11:08:44;;;;;;;8.40;3.40;;;;;;;20.59;70.58;98871.30;109494;1278;22541;-47
2023/10/20 11:11:16;;;;;;;13.20;3.90;;;;;;;20.56;70.67;98878.41;108886;1276;23032;-52
2023/10/20 11:14:21;;;;;;;10.80;3.50;;;;;;;20.50;70.31;98876.48;108690;1276;22572;-47
2023/10/20 11:16:53;;;;;;;9.80;3.40;;;;;;;20.44;70.90;98879.63;108506;1271;22567;-47
2023/10/20 11:19:25;;;;;;;12.30;3.20;;;;;;;20.40;71.25;98876.02;108127;1276;22560;-47
2023/10/20 11:22:12;;;;;;;11.50;3.50;;;;;;;20.36;71.51;98878.17;108144;1278;24218;-48
2023/10/20 11:24:41;;;;;;;8.70;3.30;;;;;;;20.33;71.75;98878.73;109330;1270;22432;-51
2023/10/20 11:27:09;;;;;;;7.80;3.40;;;;;;;20.31;71.86;98883.11;109597;1273;23674;-54
2023/10/20 11:29:42;;;;;;;13.10;3.60;;;;;;;20.29;72.21;98882.68;109262;1277;22368;-52
2023/10/20 11:32:25;;;;;;;7.50;3.10;;;;;;;20.27;72.51;98885.66;109648;1264;22530;-48
2023/10/20 11:34:54;;;;;;;11.20;3.70;;;;;;;20.25;73.10;98887.73;109958;1270;22496;-48
2023/10/20 11:37:21;;;;;;;11.50;4.10;;;;;;;20.23;73.09;98885.37;109912;1278;22437;-54
2023/10/20 11:39:49;;;;;;;9.70;4.00;;;;;;;20.21;72.94;98880.50;109895;1278;22307;-54
2023/10/20 11:42:17;;;;;;;10.30;3.40;;;;;;;20.19;73.08;98885.06;109933;1271;22417;-54
2023/10/20 11:44:46;;;;;;;13.00;4.00;;;;;;;20.19;73.37;98889.16;108943;1274;22602;-47
2023/10/20 11:47:15;;;;;;;11.20;4.40;;;;;;;20.20;73.74;98887.14;110027;1277;22442;-48
2023/10/20 11:49:43;;;;;;;14.20;4.20;;;;;;;20.23;73.64;98892.83;108854;1278;22398;-52
2023/10/20 11:52:11;;;;;;;11.40;4.20;;;;;;;20.25;74.10;98888.25;109123;1270;22390;-54
2023/10/20 11:54:39;;;;;;;9.50;4.10;;;;;;;20.30;74.09;98889.38;109849;1278;22248;-54
2023/10/20 11:57:10;;;;;;;12.80;4.20;;;;;;;20.36;74.10;98891.85;109269;1278;22522;-49
2023/10/20 11:59:47;;;;;;;13.00;4.10;;;;;;;20.42;74.12;98888.05;109778;1278;22246;-54
2023/10/20 12:02:14;;;;;;;10.40;5.00;;;;;;;20.51;74.39;98883.46;109038;1278;22566;-50
2023/10/20 12:04:43;;;;;;;12.60;4.80;;;;;;;20.61;73.97;98881.25;108099;1271;22425;-49
2023/10/20 12:07:12;;;;;;;15.60;4.70;;;;;;;20.68;73.51;98877.26;109464;1278;22319;-52
2023/10/20 12:09:40;;;;;;;8.90;4.30;;;;;;;20.72;73.08;98883.94;109965;1276;22279;-46
2023/10/20 12:12:08;;;;;;;10.50;4.70;;;;;;;20.72;72.75;98877.90;109808;1264;22460;-48
2023/10/20 12:14:36;;;;;;;12.60;5.00;;;;;;;20.72;72.47;98874.33;109079;1279;22500;-49
2023/10/20 12:17:04;;;;;;;14.30;4.90;;;;;;;20.78;72.36;98866.17;109735;1270;23384;-52
2023/10/20 12:19:34;;;;;;;8.30;5.00;;;;;;;20.93;72.05;98855.29;109691;1278;22344;-53
2023/10/20 12:22:05;;;;;;;10.70;4.80;;;;;;;21.10;70.98;98855.02;109827;1279;22563;-48
2023/10/20 12:24:33;;;;;;;11.00;4.60;;;;;;;21.21;70.76;98852.85;109674;1278;23220;-53
2023/10/20 12:27:03;;;;;;;9.10;4.40;;;;;;;21.27;70.66;98846.47;109786;1278;22414;-54
2023/10/20 12:29:32;;;;;;;12.80;4.90;;;;;;;21.35;70.37;98850.55;109771;1278;22539;-47
2023/10/20 12:32:02;;;;;;;10.30;4.90;;;;;;;21.46;69.31;98853.75;109464;1278;23165;-51
2023/10/20 12:34:36;;;;;;;23.00;5.40;;;;;;;21.48;69.03;98855.73;107955;1278;22582;-50
2023/10/20 12:37:05;;;;;;;10.50;4.50;;;;;;;21.43;69.01;98853.94;109316;1279;22323;-51
2023/10/20 12:39:34;;;;;;;9.30;4.40;;;;;;;21.33;69.47;98852.86;109531;1279;22381;-47
2023/10/20 12:42:03;;;;;;;8.30;5.10;;;;;;;21.23;69.94;98853.98;108343;1278;22507;-48
2023/10/20 12:44:33;;;;;;;11.00;4.90;;;;;;;21.16;70.52;98853.94;108553;1274;23000;-51
2023/10/20 12:47:03;;;;;;;14.80;5.60;;;;;;;21.09;70.95;98853.51;109939;1267;22287;-51
2023/10/20 12:49:32;;;;;;;10.70;4.70;;;;;;;21.05;71.35;98852.53;109510;1279;22514;-48
2023/10/20 12:52:01;;;;;;;14.60;6.60;;;;;;;21.02;71.35;98851.15;109492;1278;22439;-48
2023/10/20 12:54:30;;;;;;;15.00;5.30;;;;;;;20.99;71.50;98848.11;109959;1278;22489;-52
2023/10/20 12:57:00;;;;;;;10.70;5.20;;;;;;;21.00;71.84;98845.63;109803;1279;22272;-53
2023/10/20 12:59:29;;;;;;;11.50;5.50;;;;;;;21.00;71.56;98840.27;109836;1279;22192;-52
2023/10/20 13:01:58;;;;;;;10.80;4.80;;;;;;;21.03;71.60;98842.21;109972;1278;23385;-48
2023/10/20 13:04:28;;;;;;;19.10;5.70;;;;;;;21.06;71.75;98854.27;109665;1278;22300;-54
2023/10/20 13:06:57;;;;;;;10.10;5.30;;;;;;;21.08;71.89;98855.39;107769;1279;22328;-54
2023/10/20 13:09:28;;;;;;;9.70;4.90;;;;;;;21.07;71.93;98855.05;109401;1279;22341;-48
2023/10/20 13:11:57;;;;;;;8.60;5.00;;;;;;;21.09;72.02;98856.69;108988;1275;24239;-48
2023/10/20 13:14:28;;;;;;;13.20;6.00;;;;;;;21.14;71.83;98857.80;109924;1278;22291;-47
2023/10/20 13:16:59;;;;;;;10.20;4.90;;;;;;;21.18;71.59;98855.56;107544;1277;22530;-47
2023/10/20 13:19:29;;;;;;;14.20;6.20;;;;;;;21.19;71.22;98855.30;107271;1278;25451;-53
2023/10/20 13:22:04;;;;;;;11.20;4.90;;;;;;;21.18;71.25;98847.38;107339;1268;24279;-47
